EmailTwitter


Surface observations / Quebec / CYMX

Regions: Quebec | Canada | USA | Europe | France | UK | Elsewhere
Station
Display
Info & Location for CYMX | Help decoding METAR

Weather Conditions observed on 2018/05/28 at 05:00 UTC at MONTREAL MIRABEL, QB (CYMX)

Sky conditions: partly cloudy.

Temperature: 12.0 Celsius.

Dewpoint: 11.0 Celsius.

Relative Humidity: 94%

Winds: Variable at 4 km/h or 2 knots.

Mean Sea level Pressure: 101.63 kilopascals.

Altimeter Setting (QNH): 101.59 kilopascals or 30.00 inches of mercury.

Horizontal visibility: 25.00 statute miles or 40.00 kilometers.

Height of the Ceiling: 1372 metres ( 4500 feet ).

Coded METAR:

CYMX 280500Z VRB02KT 25SM BKN045 12/11 A3000 RMK SC7 SLP163=